sensor_id;sensor_type;location;lat;lon;timestamp;P1;durP1;ratioP1;P2;durP2;ratioP2
51190;SDS011;37253;48.736;9.294;2022-11-15T00:01:05;5.05;;;2.00;;
51190;SDS011;37253;48.736;9.294;2022-11-15T00:03:06;2.83;;;1.83;;
51190;SDS011;37253;48.736;9.294;2022-11-15T00:05:07;3.00;;;1.48;;
51190;SDS011;37253;48.736;9.294;2022-11-15T00:07:07;4.00;;;1.52;;
51190;SDS011;37253;48.736;9.294;2022-11-15T00:09:07;2.22;;;1.35;;
51190;SDS011;37253;48.736;9.294;2022-11-15T00:11:08;4.28;;;1.33;;
51190;SDS011;37253;48.736;9.294;2022-11-15T00:13:10;2.97;;;1.63;;
51190;SDS011;37253;48.736;9.294;2022-11-15T00:15:12;4.18;;;1.85;;
51190;SDS011;37253;48.736;9.294;2022-11-15T00:17:12;4.10;;;1.38;;
51190;SDS011;37253;48.736;9.294;2022-11-15T00:19:12;2.50;;;1.58;;
51190;SDS011;37253;48.736;9.294;2022-11-15T00:21:13;3.53;;;1.55;;
51190;SDS011;37253;48.736;9.294;2022-11-15T00:23:14;2.50;;;1.40;;
51190;SDS011;37253;48.736;9.294;2022-11-15T00:25:14;3.97;;;1.90;;
51190;SDS011;37253;48.736;9.294;2022-11-15T00:27:15;4.05;;;1.42;;
51190;SDS011;37253;48.736;9.294;2022-11-15T00:29:15;2.65;;;1.50;;
51190;SDS011;37253;48.736;9.294;2022-11-15T00:31:15;3.47;;;1.55;;
51190;SDS011;37253;48.736;9.294;2022-11-15T00:33:16;3.60;;;1.35;;
51190;SDS011;37253;48.736;9.294;2022-11-15T00:35:16;3.13;;;1.52;;
51190;SDS011;37253;48.736;9.294;2022-11-15T00:37:16;2.42;;;1.52;;
51190;SDS011;37253;48.736;9.294;2022-11-15T00:39:17;3.80;;;1.67;;
51190;SDS011;37253;48.736;9.294;2022-11-15T00:41:17;2.28;;;1.40;;
51190;SDS011;37253;48.736;9.294;2022-11-15T00:43:17;4.88;;;1.60;;
51190;SDS011;37253;48.736;9.294;2022-11-15T00:45:18;2.95;;;1.77;;
51190;SDS011;37253;48.736;9.294;2022-11-15T00:47:18;2.28;;;1.30;;
51190;SDS011;37253;48.736;9.294;2022-11-15T00:49:18;5.32;;;1.40;;
51190;SDS011;37253;48.736;9.294;2022-11-15T00:51:19;3.55;;;1.55;;
51190;SDS011;37253;48.736;9.294;2022-11-15T00:53:19;2.03;;;1.40;;
51190;SDS011;37253;48.736;9.294;2022-11-15T00:55:19;3.22;;;1.70;;
51190;SDS011;37253;48.736;9.294;2022-11-15T00:57:20;1.50;;;1.30;;
51190;SDS011;37253;48.736;9.294;2022-11-15T00:59:20;2.33;;;1.48;;
51190;SDS011;37253;48.736;9.294;2022-11-15T01:01:20;1.83;;;1.30;;
51190;SDS011;37253;48.736;9.294;2022-11-15T01:03:21;1.85;;;1.33;;
51190;SDS011;37253;48.736;9.294;2022-11-15T01:05:21;2.67;;;1.50;;
51190;SDS011;37253;48.736;9.294;2022-11-15T01:07:21;2.75;;;1.67;;
51190;SDS011;37253;48.736;9.294;2022-11-15T01:09:22;2.55;;;1.35;;
51190;SDS011;37253;48.736;9.294;2022-11-15T01:11:22;3.05;;;1.80;;
51190;SDS011;37253;48.736;9.294;2022-11-15T01:13:22;2.70;;;1.30;;
51190;SDS011;37253;48.736;9.294;2022-11-15T01:15:23;2.38;;;1.45;;
51190;SDS011;37253;48.736;9.294;2022-11-15T01:17:23;1.95;;;1.40;;
51190;SDS011;37253;48.736;9.294;2022-11-15T01:19:23;2.03;;;1.40;;
51190;SDS011;37253;48.736;9.294;2022-11-15T01:21:24;3.17;;;1.58;;
51190;SDS011;37253;48.736;9.294;2022-11-15T01:23:24;1.63;;;1.15;;
51190;SDS011;37253;48.736;9.294;2022-11-15T01:25:25;2.55;;;1.60;;
51190;SDS011;37253;48.736;9.294;2022-11-15T01:27:25;1.42;;;1.20;;
51190;SDS011;37253;48.736;9.294;2022-11-15T01:29:25;2.67;;;1.60;;
51190;SDS011;37253;48.736;9.294;2022-11-15T01:31:25;3.03;;;1.42;;
51190;SDS011;37253;48.736;9.294;2022-11-15T01:33:27;2.10;;;1.50;;
51190;SDS011;37253;48.736;9.294;2022-11-15T01:35:28;2.50;;;1.40;;
51190;SDS011;37253;48.736;9.294;2022-11-15T01:37:28;4.22;;;1.30;;
51190;SDS011;37253;48.736;9.294;2022-11-15T01:39:28;2.40;;;1.30;;
51190;SDS011;37253;48.736;9.294;2022-11-15T01:41:30;3.08;;;1.50;;
51190;SDS011;37253;48.736;9.294;2022-11-15T01:43:32;2.72;;;1.00;;
51190;SDS011;37253;48.736;9.294;2022-11-15T01:45:36;1.83;;;1.20;;
51190;SDS011;37253;48.736;9.294;2022-11-15T01:47:37;2.28;;;1.35;;
51190;SDS011;37253;48.736;9.294;2022-11-15T01:49:40;2.58;;;1.33;;
51190;SDS011;37253;48.736;9.294;2022-11-15T01:51:47;1.65;;;1.27;;
51190;SDS011;37253;48.736;9.294;2022-11-15T01:53:47;2.08;;;1.25;;
51190;SDS011;37253;48.736;9.294;2022-11-15T01:55:49;1.50;;;1.38;;
51190;SDS011;37253;48.736;9.294;2022-11-15T01:57:53;1.73;;;1.25;;
51190;SDS011;37253;48.736;9.294;2022-11-15T01:59:56;1.27;;;1.17;;
51190;SDS011;37253;48.736;9.294;2022-11-15T02:01:58;2.22;;;1.40;;
51190;SDS011;37253;48.736;9.294;2022-11-15T02:03:59;1.80;;;1.23;;
51190;SDS011;37253;48.736;9.294;2022-11-15T02:06:03;2.08;;;1.30;;
51190;SDS011;37253;48.736;9.294;2022-11-15T02:08:03;3.00;;;1.20;;
51190;SDS011;37253;48.736;9.294;2022-11-15T02:10:08;2.05;;;1.40;;
51190;SDS011;37253;48.736;9.294;2022-11-15T02:12:14;1.83;;;1.10;;
51190;SDS011;37253;48.736;9.294;2022-11-15T02:14:16;1.30;;;1.10;;
51190;SDS011;37253;48.736;9.294;2022-11-15T02:18:32;1.75;;;1.20;;
51190;SDS011;37253;48.736;9.294;2022-11-15T02:20:41;2.40;;;1.50;;
51190;SDS011;37253;48.736;9.294;2022-11-15T02:27:31;4.13;;;1.30;;
51190;SDS011;37253;48.736;9.294;2022-11-15T02:31:51;2.05;;;1.27;;
51190;SDS011;37253;48.736;9.294;2022-11-15T02:34:00;1.75;;;1.15;;
51190;SDS011;37253;48.736;9.294;2022-11-15T02:36:28;1.92;;;1.27;;
51190;SDS011;37253;48.736;9.294;2022-11-15T02:38:35;1.52;;;1.33;;
51190;SDS011;37253;48.736;9.294;2022-11-15T02:41:00;2.13;;;1.13;;
51190;SDS011;37253;48.736;9.294;2022-11-15T02:43:07;1.75;;;1.40;;
51190;SDS011;37253;48.736;9.294;2022-11-15T02:45:29;1.30;;;1.20;;
51190;SDS011;37253;48.736;9.294;2022-11-15T02:47:31;2.13;;;1.00;;
51190;SDS011;37253;48.736;9.294;2022-11-15T02:49:34;1.33;;;1.00;;
51190;SDS011;37253;48.736;9.294;2022-11-15T02:51:35;1.80;;;1.20;;
51190;SDS011;37253;48.736;9.294;2022-11-15T02:53:35;1.58;;;1.20;;
51190;SDS011;37253;48.736;9.294;2022-11-15T02:55:36;1.88;;;1.00;;
51190;SDS011;37253;48.736;9.294;2022-11-15T02:57:44;1.65;;;1.27;;
51190;SDS011;37253;48.736;9.294;2022-11-15T03:00:03;2.45;;;1.20;;
51190;SDS011;37253;48.736;9.294;2022-11-15T03:02:20;1.83;;;1.40;;
51190;SDS011;37253;48.736;9.294;2022-11-15T03:06:38;1.67;;;1.20;;
51190;SDS011;37253;48.736;9.294;2022-11-15T03:19:35;1.40;;;1.10;;
51190;SDS011;37253;48.736;9.294;2022-11-15T03:21:37;2.47;;;1.58;;
51190;SDS011;37253;48.736;9.294;2022-11-15T03:23:39;2.25;;;1.10;;
51190;SDS011;37253;48.736;9.294;2022-11-15T03:25:41;1.45;;;1.20;;
51190;SDS011;37253;48.736;9.294;2022-11-15T03:27:44;1.25;;;1.13;;
51190;SDS011;37253;48.736;9.294;2022-11-15T03:29:50;1.13;;;1.00;;
51190;SDS011;37253;48.736;9.294;2022-11-15T03:31:57;2.85;;;1.10;;
51190;SDS011;37253;48.736;9.294;2022-11-15T03:34:00;1.90;;;1.10;;
51190;SDS011;37253;48.736;9.294;2022-11-15T03:36:02;1.50;;;1.05;;
51190;SDS011;37253;48.736;9.294;2022-11-15T03:38:22;1.70;;;1.10;;
51190;SDS011;37253;48.736;9.294;2022-11-15T03:40:27;1.65;;;0.95;;
51190;SDS011;37253;48.736;9.294;2022-11-15T03:42:36;2.45;;;1.10;;
51190;SDS011;37253;48.736;9.294;2022-11-15T03:49:27;1.38;;;1.00;;
51190;SDS011;37253;48.736;9.294;2022-11-15T03:51:31;1.20;;;1.10;;
51190;SDS011;37253;48.736;9.294;2022-11-15T03:53:32;1.50;;;1.25;;
51190;SDS011;37253;48.736;9.294;2022-11-15T03:55:32;2.10;;;1.30;;
51190;SDS011;37253;48.736;9.294;2022-11-15T03:57:33;2.20;;;1.15;;
51190;SDS011;37253;48.736;9.294;2022-11-15T03:59:33;1.20;;;1.08;;
51190;SDS011;37253;48.736;9.294;2022-11-15T04:01:33;1.35;;;1.00;;
51190;SDS011;37253;48.736;9.294;2022-11-15T04:03:34;1.50;;;1.00;;
51190;SDS011;37253;48.736;9.294;2022-11-15T04:05:34;1.67;;;1.08;;
51190;SDS011;37253;48.736;9.294;2022-11-15T04:07:34;1.15;;;1.02;;
51190;SDS011;37253;48.736;9.294;2022-11-15T04:09:35;1.42;;;1.10;;
51190;SDS011;37253;48.736;9.294;2022-11-15T04:11:55;1.55;;;1.00;;
51190;SDS011;37253;48.736;9.294;2022-11-15T04:13:55;2.15;;;1.00;;
51190;SDS011;37253;48.736;9.294;2022-11-15T04:15:56;3.72;;;1.20;;
51190;SDS011;37253;48.736;9.294;2022-11-15T04:17:56;1.77;;;1.00;;
51190;SDS011;37253;48.736;9.294;2022-11-15T04:19:57;1.13;;;1.02;;
51190;SDS011;37253;48.736;9.294;2022-11-15T04:22:15;1.60;;;1.10;;
51190;SDS011;37253;48.736;9.294;2022-11-15T04:24:34;3.30;;;1.27;;
51190;SDS011;37253;48.736;9.294;2022-11-15T04:26:35;1.48;;;1.10;;
51190;SDS011;37253;48.736;9.294;2022-11-15T04:28:35;1.10;;;0.90;;
51190;SDS011;37253;48.736;9.294;2022-11-15T04:30:55;1.02;;;0.93;;
51190;SDS011;37253;48.736;9.294;2022-11-15T04:32:56;1.05;;;0.90;;
51190;SDS011;37253;48.736;9.294;2022-11-15T04:34:56;1.80;;;1.10;;
51190;SDS011;37253;48.736;9.294;2022-11-15T04:36:57;2.17;;;1.08;;
51190;SDS011;37253;48.736;9.294;2022-11-15T04:39:12;2.10;;;1.02;;
51190;SDS011;37253;48.736;9.294;2022-11-15T04:41:13;2.22;;;1.05;;
51190;SDS011;37253;48.736;9.294;2022-11-15T04:43:13;2.50;;;1.10;;
51190;SDS011;37253;48.736;9.294;2022-11-15T04:45:13;1.15;;;1.00;;
51190;SDS011;37253;48.736;9.294;2022-11-15T04:47:13;1.70;;;1.10;;
51190;SDS011;37253;48.736;9.294;2022-11-15T04:49:14;1.70;;;1.00;;
51190;SDS011;37253;48.736;9.294;2022-11-15T04:51:14;1.60;;;0.98;;
51190;SDS011;37253;48.736;9.294;2022-11-15T04:53:14;1.42;;;0.93;;
51190;SDS011;37253;48.736;9.294;2022-11-15T04:55:15;2.30;;;1.17;;
51190;SDS011;37253;48.736;9.294;2022-11-15T04:57:15;1.17;;;1.00;;
51190;SDS011;37253;48.736;9.294;2022-11-15T04:59:16;2.95;;;1.00;;
51190;SDS011;37253;48.736;9.294;2022-11-15T05:01:16;1.70;;;1.10;;
51190;SDS011;37253;48.736;9.294;2022-11-15T05:03:17;1.23;;;0.90;;
51190;SDS011;37253;48.736;9.294;2022-11-15T05:05:35;1.00;;;0.88;;
51190;SDS011;37253;48.736;9.294;2022-11-15T05:07:36;1.58;;;1.00;;
51190;SDS011;37253;48.736;9.294;2022-11-15T05:09:36;0.98;;;0.90;;
51190;SDS011;37253;48.736;9.294;2022-11-15T05:11:36;1.10;;;1.00;;
51190;SDS011;37253;48.736;9.294;2022-11-15T05:13:37;2.22;;;1.00;;
51190;SDS011;37253;48.736;9.294;2022-11-15T05:15:37;1.20;;;0.90;;
51190;SDS011;37253;48.736;9.294;2022-11-15T05:17:37;1.70;;;0.90;;
51190;SDS011;37253;48.736;9.294;2022-11-15T05:19:38;4.82;;;1.15;;
51190;SDS011;37253;48.736;9.294;2022-11-15T05:21:38;1.67;;;0.98;;
51190;SDS011;37253;48.736;9.294;2022-11-15T05:23:39;0.88;;;0.82;;
51190;SDS011;37253;48.736;9.294;2022-11-15T05:25:39;1.50;;;1.10;;
51190;SDS011;37253;48.736;9.294;2022-11-15T05:27:40;1.55;;;1.02;;
51190;SDS011;37253;48.736;9.294;2022-11-15T05:29:40;2.67;;;1.00;;
51190;SDS011;37253;48.736;9.294;2022-11-15T05:31:40;1.65;;;0.85;;
51190;SDS011;37253;48.736;9.294;2022-11-15T05:33:42;1.40;;;0.93;;
51190;SDS011;37253;48.736;9.294;2022-11-15T05:35:45;1.25;;;0.95;;
51190;SDS011;37253;48.736;9.294;2022-11-15T05:37:47;1.15;;;0.82;;
51190;SDS011;37253;48.736;9.294;2022-11-15T05:39:47;1.17;;;0.90;;
51190;SDS011;37253;48.736;9.294;2022-11-15T05:42:30;1.52;;;1.00;;
51190;SDS011;37253;48.736;9.294;2022-11-15T05:44:12;1.15;;;0.90;;
51190;SDS011;37253;48.736;9.294;2022-11-15T05:46:15;2.22;;;0.90;;
51190;SDS011;37253;48.736;9.294;2022-11-15T05:48:15;2.28;;;0.82;;
51190;SDS011;37253;48.736;9.294;2022-11-15T05:50:16;1.00;;;0.90;;
51190;SDS011;37253;48.736;9.294;2022-11-15T05:52:19;2.20;;;1.00;;
51190;SDS011;37253;48.736;9.294;2022-11-15T05:54:21;1.88;;;0.90;;
51190;SDS011;37253;48.736;9.294;2022-11-15T05:56:22;1.30;;;0.90;;
51190;SDS011;37253;48.736;9.294;2022-11-15T05:58:22;1.48;;;0.85;;
51190;SDS011;37253;48.736;9.294;2022-11-15T06:00:23;1.50;;;1.00;;
51190;SDS011;37253;48.736;9.294;2022-11-15T06:02:23;1.10;;;1.00;;
51190;SDS011;37253;48.736;9.294;2022-11-15T06:04:23;1.17;;;0.80;;
51190;SDS011;37253;48.736;9.294;2022-11-15T06:06:24;1.90;;;0.90;;
51190;SDS011;37253;48.736;9.294;2022-11-15T06:08:24;1.85;;;0.85;;
51190;SDS011;37253;48.736;9.294;2022-11-15T06:10:24;1.90;;;0.80;;
51190;SDS011;37253;48.736;9.294;2022-11-15T06:12:25;1.67;;;1.05;;
51190;SDS011;37253;48.736;9.294;2022-11-15T06:14:25;1.10;;;1.00;;
51190;SDS011;37253;48.736;9.294;2022-11-15T06:16:25;1.70;;;1.00;;
51190;SDS011;37253;48.736;9.294;2022-11-15T06:18:26;2.30;;;0.95;;
51190;SDS011;37253;48.736;9.294;2022-11-15T06:20:27;1.80;;;1.00;;
51190;SDS011;37253;48.736;9.294;2022-11-15T06:22:27;4.00;;;1.00;;
51190;SDS011;37253;48.736;9.294;2022-11-15T06:24:28;0.73;;;0.70;;
51190;SDS011;37253;48.736;9.294;2022-11-15T06:26:28;1.67;;;0.90;;
51190;SDS011;37253;48.736;9.294;2022-11-15T06:28:29;1.75;;;0.80;;
51190;SDS011;37253;48.736;9.294;2022-11-15T06:30:30;1.20;;;0.88;;
51190;SDS011;37253;48.736;9.294;2022-11-15T06:32:30;1.33;;;1.00;;
51190;SDS011;37253;48.736;9.294;2022-11-15T06:34:30;1.45;;;1.10;;
51190;SDS011;37253;48.736;9.294;2022-11-15T06:36:31;1.70;;;0.90;;
51190;SDS011;37253;48.736;9.294;2022-11-15T06:38:34;2.17;;;0.80;;
51190;SDS011;37253;48.736;9.294;2022-11-15T06:40:35;1.75;;;1.00;;
51190;SDS011;37253;48.736;9.294;2022-11-15T06:42:36;2.00;;;0.90;;
51190;SDS011;37253;48.736;9.294;2022-11-15T06:44:36;1.95;;;1.10;;
51190;SDS011;37253;48.736;9.294;2022-11-15T06:46:37;3.25;;;1.40;;
51190;SDS011;37253;48.736;9.294;2022-11-15T06:48:37;1.73;;;0.90;;
51190;SDS011;37253;48.736;9.294;2022-11-15T06:50:37;2.13;;;1.00;;
51190;SDS011;37253;48.736;9.294;2022-11-15T06:52:38;1.50;;;0.88;;
51190;SDS011;37253;48.736;9.294;2022-11-15T06:54:38;1.45;;;0.90;;
51190;SDS011;37253;48.736;9.294;2022-11-15T06:56:38;1.70;;;0.95;;
51190;SDS011;37253;48.736;9.294;2022-11-15T06:58:39;1.20;;;0.80;;
51190;SDS011;37253;48.736;9.294;2022-11-15T07:00:39;3.92;;;1.10;;
51190;SDS011;37253;48.736;9.294;2022-11-15T07:02:40;2.90;;;0.95;;
51190;SDS011;37253;48.736;9.294;2022-11-15T07:04:40;1.10;;;0.80;;
51190;SDS011;37253;48.736;9.294;2022-11-15T07:06:40;1.42;;;1.02;;
51190;SDS011;37253;48.736;9.294;2022-11-15T07:08:40;3.60;;;1.30;;
51190;SDS011;37253;48.736;9.294;2022-11-15T07:10:41;1.45;;;1.05;;
51190;SDS011;37253;48.736;9.294;2022-11-15T07:12:42;2.88;;;1.10;;
51190;SDS011;37253;48.736;9.294;2022-11-15T07:14:42;3.60;;;1.00;;
51190;SDS011;37253;48.736;9.294;2022-11-15T07:16:42;2.28;;;1.23;;
51190;SDS011;37253;48.736;9.294;2022-11-15T07:18:42;3.30;;;1.27;;
51190;SDS011;37253;48.736;9.294;2022-11-15T07:20:43;5.13;;;1.20;;
51190;SDS011;37253;48.736;9.294;2022-11-15T07:22:43;6.13;;;1.30;;
51190;SDS011;37253;48.736;9.294;2022-11-15T07:24:45;3.00;;;1.08;;
51190;SDS011;37253;48.736;9.294;2022-11-15T07:26:45;2.63;;;0.93;;
51190;SDS011;37253;48.736;9.294;2022-11-15T07:28:45;2.67;;;0.90;;
51190;SDS011;37253;48.736;9.294;2022-11-15T07:30:46;4.32;;;1.20;;
51190;SDS011;37253;48.736;9.294;2022-11-15T07:32:46;2.38;;;1.02;;
51190;SDS011;37253;48.736;9.294;2022-11-15T07:34:46;6.88;;;1.65;;
51190;SDS011;37253;48.736;9.294;2022-11-15T07:36:47;4.22;;;1.20;;
51190;SDS011;37253;48.736;9.294;2022-11-15T07:38:47;3.15;;;1.10;;
51190;SDS011;37253;48.736;9.294;2022-11-15T07:40:55;5.22;;;1.38;;
51190;SDS011;37253;48.736;9.294;2022-11-15T07:42:59;5.32;;;1.35;;
51190;SDS011;37253;48.736;9.294;2022-11-15T07:45:06;3.15;;;1.20;;
51190;SDS011;37253;48.736;9.294;2022-11-15T07:47:07;4.10;;;1.20;;
51190;SDS011;37253;48.736;9.294;2022-11-15T07:49:07;5.10;;;1.30;;
51190;SDS011;37253;48.736;9.294;2022-11-15T07:51:09;3.95;;;1.35;;
51190;SDS011;37253;48.736;9.294;2022-11-15T07:53:14;4.18;;;1.30;;
51190;SDS011;37253;48.736;9.294;2022-11-15T07:55:14;3.03;;;1.13;;
51190;SDS011;37253;48.736;9.294;2022-11-15T07:57:15;2.92;;;1.33;;
51190;SDS011;37253;48.736;9.294;2022-11-15T07:59:15;4.63;;;1.17;;
51190;SDS011;37253;48.736;9.294;2022-11-15T08:01:15;6.85;;;1.85;;
51190;SDS011;37253;48.736;9.294;2022-11-15T08:03:16;7.88;;;2.00;;
51190;SDS011;37253;48.736;9.294;2022-11-15T08:05:16;7.38;;;1.98;;
51190;SDS011;37253;48.736;9.294;2022-11-15T08:07:17;9.45;;;2.50;;
51190;SDS011;37253;48.736;9.294;2022-11-15T08:09:17;9.27;;;2.42;;
51190;SDS011;37253;48.736;9.294;2022-11-15T08:11:17;7.47;;;2.28;;
51190;SDS011;37253;48.736;9.294;2022-11-15T08:13:18;13.63;;;2.65;;
51190;SDS011;37253;48.736;9.294;2022-11-15T08:15:18;8.00;;;2.30;;
51190;SDS011;37253;48.736;9.294;2022-11-15T08:17:18;7.80;;;2.33;;
51190;SDS011;37253;48.736;9.294;2022-11-15T08:19:19;7.20;;;2.40;;
51190;SDS011;37253;48.736;9.294;2022-11-15T08:21:20;11.10;;;2.78;;
51190;SDS011;37253;48.736;9.294;2022-11-15T08:23:21;9.30;;;2.88;;
51190;SDS011;37253;48.736;9.294;2022-11-15T08:25:21;8.70;;;2.88;;
51190;SDS011;37253;48.736;9.294;2022-11-15T08:27:21;9.15;;;2.53;;
51190;SDS011;37253;48.736;9.294;2022-11-15T08:29:22;10.60;;;2.70;;
51190;SDS011;37253;48.736;9.294;2022-11-15T08:31:22;5.68;;;2.53;;
51190;SDS011;37253;48.736;9.294;2022-11-15T08:33:22;7.60;;;2.67;;
51190;SDS011;37253;48.736;9.294;2022-11-15T08:35:23;10.85;;;3.20;;
51190;SDS011;37253;48.736;9.294;2022-11-15T08:37:24;10.18;;;2.80;;
51190;SDS011;37253;48.736;9.294;2022-11-15T08:39:24;8.48;;;2.80;;
51190;SDS011;37253;48.736;9.294;2022-11-15T08:41:25;11.25;;;2.80;;
51190;SDS011;37253;48.736;9.294;2022-11-15T08:43:27;11.25;;;2.92;;
51190;SDS011;37253;48.736;9.294;2022-11-15T08:45:28;8.05;;;2.63;;
51190;SDS011;37253;48.736;9.294;2022-11-15T08:47:29;8.60;;;2.95;;
51190;SDS011;37253;48.736;9.294;2022-11-15T08:49:29;13.00;;;3.10;;
51190;SDS011;37253;48.736;9.294;2022-11-15T08:51:29;7.70;;;3.03;;
51190;SDS011;37253;48.736;9.294;2022-11-15T08:53:30;7.30;;;3.20;;
51190;SDS011;37253;48.736;9.294;2022-11-15T08:55:30;6.90;;;3.00;;
51190;SDS011;37253;48.736;9.294;2022-11-15T08:57:30;6.25;;;2.83;;
51190;SDS011;37253;48.736;9.294;2022-11-15T08:59:31;5.72;;;2.58;;
51190;SDS011;37253;48.736;9.294;2022-11-15T09:01:31;11.25;;;2.58;;
51190;SDS011;37253;48.736;9.294;2022-11-15T09:03:32;5.45;;;3.05;;
51190;SDS011;37253;48.736;9.294;2022-11-15T09:05:32;8.15;;;3.00;;
51190;SDS011;37253;48.736;9.294;2022-11-15T09:07:35;7.20;;;3.10;;
51190;SDS011;37253;48.736;9.294;2022-11-15T09:09:36;7.70;;;3.33;;
51190;SDS011;37253;48.736;9.294;2022-11-15T09:11:37;5.07;;;2.55;;
51190;SDS011;37253;48.736;9.294;2022-11-15T09:13:37;6.85;;;2.80;;
51190;SDS011;37253;48.736;9.294;2022-11-15T09:15:38;11.57;;;3.25;;
51190;SDS011;37253;48.736;9.294;2022-11-15T09:17:38;13.07;;;3.17;;
51190;SDS011;37253;48.736;9.294;2022-11-15T09:19:38;7.80;;;3.15;;
51190;SDS011;37253;48.736;9.294;2022-11-15T09:21:39;7.63;;;2.72;;
51190;SDS011;37253;48.736;9.294;2022-11-15T09:23:39;9.02;;;2.90;;
51190;SDS011;37253;48.736;9.294;2022-11-15T09:25:39;10.20;;;2.83;;
51190;SDS011;37253;48.736;9.294;2022-11-15T09:27:40;9.20;;;3.15;;
51190;SDS011;37253;48.736;9.294;2022-11-15T09:29:40;10.38;;;3.22;;
51190;SDS011;37253;48.736;9.294;2022-11-15T09:31:41;9.73;;;3.08;;
51190;SDS011;37253;48.736;9.294;2022-11-15T09:33:44;6.25;;;2.85;;
51190;SDS011;37253;48.736;9.294;2022-11-15T09:35:45;8.02;;;2.80;;
51190;SDS011;37253;48.736;9.294;2022-11-15T09:37:46;7.50;;;2.65;;
51190;SDS011;37253;48.736;9.294;2022-11-15T09:39:46;7.93;;;2.78;;
51190;SDS011;37253;48.736;9.294;2022-11-15T09:50:53;4.82;;;2.85;;
51190;SDS011;37253;48.736;9.294;2022-11-15T09:52:59;10.18;;;2.90;;
51190;SDS011;37253;48.736;9.294;2022-11-15T09:55:00;8.57;;;2.53;;
51190;SDS011;37253;48.736;9.294;2022-11-15T09:57:13;7.95;;;2.40;;
51190;SDS011;37253;48.736;9.294;2022-11-15T09:59:21;6.55;;;2.60;;
51190;SDS011;37253;48.736;9.294;2022-11-15T10:01:32;5.00;;;2.55;;
51190;SDS011;37253;48.736;9.294;2022-11-15T10:03:53;5.45;;;2.47;;
51190;SDS011;37253;48.736;9.294;2022-11-15T10:06:00;6.07;;;2.63;;
51190;SDS011;37253;48.736;9.294;2022-11-15T10:10:22;7.82;;;2.80;;
51190;SDS011;37253;48.736;9.294;2022-11-15T10:12:27;5.13;;;2.28;;
51190;SDS011;37253;48.736;9.294;2022-11-15T10:14:28;8.40;;;2.38;;
51190;SDS011;37253;48.736;9.294;2022-11-15T10:18:57;4.18;;;2.30;;
51190;SDS011;37253;48.736;9.294;2022-11-15T10:21:16;6.70;;;2.55;;
51190;SDS011;37253;48.736;9.294;2022-11-15T10:23:21;4.97;;;2.30;;
51190;SDS011;37253;48.736;9.294;2022-11-15T10:25:24;5.95;;;2.10;;
51190;SDS011;37253;48.736;9.294;2022-11-15T10:27:28;5.30;;;2.40;;
51190;SDS011;37253;48.736;9.294;2022-11-15T10:29:29;7.55;;;2.22;;
51190;SDS011;37253;48.736;9.294;2022-11-15T10:31:29;7.22;;;3.00;;
51190;SDS011;37253;48.736;9.294;2022-11-15T10:33:34;6.68;;;2.45;;
51190;SDS011;37253;48.736;9.294;2022-11-15T10:35:35;5.65;;;2.15;;
51190;SDS011;37253;48.736;9.294;2022-11-15T10:37:36;5.55;;;2.45;;
51190;SDS011;37253;48.736;9.294;2022-11-15T10:39:36;7.88;;;2.42;;
51190;SDS011;37253;48.736;9.294;2022-11-15T10:41:38;5.13;;;2.22;;
51190;SDS011;37253;48.736;9.294;2022-11-15T10:45:40;5.90;;;2.00;;
51190;SDS011;37253;48.736;9.294;2022-11-15T10:47:41;5.78;;;2.45;;
51190;SDS011;37253;48.736;9.294;2022-11-15T10:49:42;5.18;;;2.30;;
51190;SDS011;37253;48.736;9.294;2022-11-15T10:51:54;5.97;;;2.50;;
51190;SDS011;37253;48.736;9.294;2022-11-15T10:53:57;4.18;;;2.30;;
51190;SDS011;37253;48.736;9.294;2022-11-15T10:56:03;4.82;;;2.40;;
51190;SDS011;37253;48.736;9.294;2022-11-15T11:00:29;5.15;;;2.10;;
51190;SDS011;37253;48.736;9.294;2022-11-15T11:02:34;5.80;;;2.20;;
51190;SDS011;37253;48.736;9.294;2022-11-15T11:04:49;7.25;;;2.42;;
51190;SDS011;37253;48.736;9.294;2022-11-15T11:06:51;5.75;;;2.45;;
51190;SDS011;37253;48.736;9.294;2022-11-15T11:08:57;5.45;;;2.28;;
51190;SDS011;37253;48.736;9.294;2022-11-15T11:11:00;5.30;;;2.13;;
51190;SDS011;37253;48.736;9.294;2022-11-15T11:15:24;5.43;;;2.13;;
51190;SDS011;37253;48.736;9.294;2022-11-15T11:24:23;4.68;;;2.00;;
51190;SDS011;37253;48.736;9.294;2022-11-15T11:31:13;3.22;;;1.95;;
51190;SDS011;37253;48.736;9.294;2022-11-15T11:33:17;4.45;;;2.00;;
51190;SDS011;37253;48.736;9.294;2022-11-15T11:35:29;7.20;;;2.20;;
51190;SDS011;37253;48.736;9.294;2022-11-15T11:42:18;3.90;;;1.88;;
51190;SDS011;37253;48.736;9.294;2022-11-15T11:46:34;2.88;;;1.92;;
51190;SDS011;37253;48.736;9.294;2022-11-15T11:49:01;3.67;;;1.83;;
51190;SDS011;37253;48.736;9.294;2022-11-15T11:51:17;3.22;;;1.67;;
51190;SDS011;37253;48.736;9.294;2022-11-15T11:55:21;3.53;;;2.07;;
51190;SDS011;37253;48.736;9.294;2022-11-15T11:59:44;4.07;;;1.95;;
51190;SDS011;37253;48.736;9.294;2022-11-15T12:01:49;5.32;;;2.15;;
51190;SDS011;37253;48.736;9.294;2022-11-15T12:04:24;3.13;;;1.85;;
51190;SDS011;37253;48.736;9.294;2022-11-15T12:10:35;4.38;;;1.98;;
51190;SDS011;37253;48.736;9.294;2022-11-15T12:14:42;3.13;;;2.08;;
51190;SDS011;37253;48.736;9.294;2022-11-15T12:16:51;4.63;;;1.98;;
51190;SDS011;37253;48.736;9.294;2022-11-15T12:18:52;2.90;;;1.73;;
51190;SDS011;37253;48.736;9.294;2022-11-15T12:20:57;3.65;;;2.17;;
51190;SDS011;37253;48.736;9.294;2022-11-15T12:23:19;2.92;;;2.03;;
51190;SDS011;37253;48.736;9.294;2022-11-15T12:25:30;3.00;;;1.88;;
51190;SDS011;37253;48.736;9.294;2022-11-15T12:27:41;4.32;;;2.08;;
51190;SDS011;37253;48.736;9.294;2022-11-15T12:29:48;3.03;;;1.83;;
51190;SDS011;37253;48.736;9.294;2022-11-15T12:31:52;3.20;;;1.90;;
51190;SDS011;37253;48.736;9.294;2022-11-15T12:33:57;3.83;;;1.80;;
51190;SDS011;37253;48.736;9.294;2022-11-15T12:36:02;3.58;;;1.73;;
51190;SDS011;37253;48.736;9.294;2022-11-15T12:38:11;4.72;;;2.10;;
51190;SDS011;37253;48.736;9.294;2022-11-15T12:55:29;3.03;;;1.90;;
51190;SDS011;37253;48.736;9.294;2022-11-15T12:57:32;5.65;;;2.10;;
51190;SDS011;37253;48.736;9.294;2022-11-15T13:02:11;2.70;;;1.52;;
51190;SDS011;37253;48.736;9.294;2022-11-15T13:06:33;2.90;;;1.70;;
51190;SDS011;37253;48.736;9.294;2022-11-15T13:08:39;3.13;;;1.90;;
51190;SDS011;37253;48.736;9.294;2022-11-15T13:10:40;2.40;;;2.07;;
51190;SDS011;37253;48.736;9.294;2022-11-15T13:14:48;4.55;;;2.10;;
51190;SDS011;37253;48.736;9.294;2022-11-15T13:16:56;4.00;;;2.00;;
51190;SDS011;37253;48.736;9.294;2022-11-15T13:18:58;5.13;;;2.22;;
51190;SDS011;37253;48.736;9.294;2022-11-15T13:20:59;3.88;;;1.90;;
51190;SDS011;37253;48.736;9.294;2022-11-15T13:23:13;5.10;;;2.13;;
51190;SDS011;37253;48.736;9.294;2022-11-15T13:25:40;2.22;;;1.80;;
51190;SDS011;37253;48.736;9.294;2022-11-15T13:27:49;3.55;;;1.77;;
51190;SDS011;37253;48.736;9.294;2022-11-15T13:29:50;2.72;;;1.70;;
51190;SDS011;37253;48.736;9.294;2022-11-15T13:31:50;2.85;;;1.67;;
51190;SDS011;37253;48.736;9.294;2022-11-15T13:33:51;2.78;;;1.88;;
51190;SDS011;37253;48.736;9.294;2022-11-15T13:35:53;3.35;;;1.95;;
51190;SDS011;37253;48.736;9.294;2022-11-15T13:37:55;2.70;;;1.98;;
51190;SDS011;37253;48.736;9.294;2022-11-15T13:39:57;5.47;;;1.90;;
51190;SDS011;37253;48.736;9.294;2022-11-15T13:42:14;4.00;;;1.85;;
51190;SDS011;37253;48.736;9.294;2022-11-15T13:44:22;2.60;;;1.67;;
51190;SDS011;37253;48.736;9.294;2022-11-15T13:46:32;3.28;;;2.00;;
51190;SDS011;37253;48.736;9.294;2022-11-15T13:48:33;3.65;;;1.58;;
51190;SDS011;37253;48.736;9.294;2022-11-15T13:50:34;3.25;;;2.10;;
51190;SDS011;37253;48.736;9.294;2022-11-15T13:52:36;3.00;;;1.73;;
51190;SDS011;37253;48.736;9.294;2022-11-15T13:57:01;3.97;;;1.90;;
51190;SDS011;37253;48.736;9.294;2022-11-15T13:59:10;3.45;;;1.65;;
51190;SDS011;37253;48.736;9.294;2022-11-15T14:01:18;5.30;;;1.70;;
51190;SDS011;37253;48.736;9.294;2022-11-15T14:03:24;3.03;;;1.90;;